Weather History for Middleton, WI

Change the Weather History Date:

Sunday, November 25, 2012

  Actual Average (KMSN) Record (KMSN)
Temperature  
Mean Temperature 32 °F 31 °F  
Max Temperature 40 °F 39 °F 62 °F (1908)
Min Temperature 23 °F 24 °F -8 °F (1950)
Degree Days  
Heating Degree Days 34 34  
Month to date heating degree days 690  
Since 1 July heating degree days 1403  
Cooling Degree Days 0 0  
Month to date cooling degree days 0  
Year to date cooling degree days 568  
Moisture  
Dew Point 21 °F    
Average Humidity 66    
Maximum Humidity 83    
Minimum Humidity 48    
Precipitation  
Precipitation 0.00 in 0.08 in 0.90 in (1952)
Month to date precipitation 2.00  
Year to date precipitation 32.35  
Snow  
Snow 0.00 in 0.20 in 3.00 in (1987)
Month to date snowfall 2.4  
Since 1 July snowfall 2.9  
Since 1 September snowfall 2.9  
Snow Depth -    
Sea Level Pressure  
Sea Level Pressure 29.91 in    
Wind  
Wind Speed 7 mph (WNW)    
Max Wind Speed 14 mph    
Max Gust Speed -    
Visibility 10 miles    
Events      
T = Trace of Precipitation, MM = Missing Value Source: NWS Daily Summary

Daily Weather History Graph

Daily Weather History Graph

Search for Another Location

Airport:

Trip Planner

Search our weather history database for the weather conditions in past years. The results will help you decide how hot, cold, wet, or windy it might be!

Date:

Astronomy

Nov. 25, 2012 Rise Set
Actual Time 7:03 AM CST 4:26 PM CST
Civil Twilight 6:32 AM CST 4:57 PM CST
Nautical Twilight 5:57 AM CST 5:33 PM CST
Astronomical Twilight 5:23 AM CST 6:07 PM CST
Moon 2:46 PM CST 4:14 AM CST
Length of Visible Light 10h 25m
Length of Day
9h 22m
Waxing Gibbous, 93% of the Moon is Illuminated
Nov 25
Waxing Gibbous
Nov 28
Full
Dec 6
Last Quarter
Dec 13
New
Dec 19
First Quarter

Hourly Weather History & Observations

Time (CST) Temp. Windchill Dew Point Humidity Pressure Visibility Wind Dir Wind Speed Gust Speed Precip Events Conditions
12:15 AM 30.6 °F 21.2 °F 19.4 °F 63% 29.86 in 10.0 mi SSW 11.5 mph - N/A   Mostly Cloudy
12:35 AM 30.2 °F 22.6 °F 19.6 °F 65% 29.85 in 10.0 mi SW 8.1 mph - N/A   Mostly Cloudy
12:55 AM 30.2 °F 26.7 °F 19.6 °F 65% 29.86 in 10.0 mi SW 3.5 mph - N/A   Scattered Clouds
1:15 AM 30.2 °F 24.3 °F 20.1 °F 66% 29.84 in 10.0 mi SSW 5.8 mph - N/A   Mostly Cloudy
1:35 AM 30.6 °F 23.8 °F 20.1 °F 65% 29.85 in 10.0 mi SW 6.9 mph - N/A   Overcast
1:55 AM 30.7 °F 26.0 °F 20.3 °F 65% 29.85 in 10.0 mi SW 4.6 mph - N/A   Overcast
2:15 AM 30.9 °F 24.3 °F 20.3 °F 65% 29.85 in 10.0 mi WSW 6.9 mph - N/A   Overcast
2:35 AM 30.6 °F 24.7 °F 20.3 °F 66% 29.84 in 10.0 mi SW 5.8 mph - N/A   Mostly Cloudy
2:55 AM 29.8 °F 24.9 °F 20.1 °F 67% 29.83 in 10.0 mi SSW 4.6 mph - N/A   Scattered Clouds
3:15 AM 28.9 °F 23.9 °F 20.1 °F 70% 29.83 in 10.0 mi SW 4.6 mph - N/A   Scattered Clouds
3:35 AM 28.6 °F 23.5 °F 20.1 °F 71% 29.82 in 10.0 mi SW 4.6 mph - N/A   Clear
3:55 AM 28.2 °F 24.4 °F 20.1 °F 72% 29.83 in 10.0 mi WSW 3.5 mph - N/A   Clear
4:15 AM 27.1 °F - 19.9 °F 74% 29.82 in 10.0 mi Calm Calm - N/A   Clear
4:35 AM 27.3 °F - 20.1 °F 74% 29.83 in 10.0 mi Calm Calm - N/A   Clear
4:55 AM 26.6 °F - 20.1 °F 77% 29.82 in 10.0 mi Calm Calm - N/A   Clear
5:15 AM 25.5 °F - 18.9 °F 76% 29.82 in 10.0 mi Calm Calm - N/A   Clear
5:35 AM 25.0 °F - 19.2 °F 79% 29.82 in 10.0 mi Calm Calm - N/A   Clear
5:55 AM 25.0 °F - 19.2 °F 79% 29.82 in 10.0 mi Calm Calm - N/A   Clear
6:15 AM 24.6 °F 20.3 °F 19.2 °F 80% 29.83 in 10.0 mi West 3.5 mph - N/A   Clear
6:35 AM 23.0 °F 15.8 °F 17.8 °F 80% 29.83 in 10.0 mi West 5.8 mph - N/A   Clear
6:55 AM 25.0 °F 19.3 °F 19.4 °F 79% 29.83 in 10.0 mi West 4.6 mph - N/A   Clear
7:15 AM 24.8 °F 16.9 °F 19.9 °F 82% 29.83 in 10.0 mi WNW 6.9 mph - N/A   Clear
7:35 AM 27.1 °F 19.7 °F 21.0 °F 78% 29.84 in 10.0 mi West 6.9 mph - N/A   Clear
7:55 AM 28.8 °F 19.5 °F 22.1 °F 76% 29.85 in 10.0 mi West 10.4 mph - N/A   Clear
8:15 AM 29.3 °F 20.8 °F 22.3 °F 75% 29.85 in 10.0 mi WNW 9.2 mph - N/A   Clear
8:35 AM 30.7 °F 22.0 °F 22.3 °F 71% 29.86 in 10.0 mi WNW 10.4 mph - N/A   Clear
8:55 AM 32.0 °F 23.6 °F 22.5 °F 68% 29.87 in 10.0 mi WNW 10.4 mph - N/A   Clear
9:15 AM 32.4 °F 23.5 °F 21.7 °F 65% 29.87 in 10.0 mi NW 11.5 mph - N/A   Clear
9:35 AM 33.1 °F 23.9 °F 21.4 °F 62% 29.87 in 10.0 mi NW 12.7 mph - N/A   Clear
9:55 AM 34.3 °F 27.0 °F 21.6 °F 60% 29.88 in 10.0 mi NW 9.2 mph - N/A   Clear
10:15 AM 34.9 °F 26.6 °F 20.5 °F 56% 29.88 in 10.0 mi NW 11.5 mph - N/A   Clear
10:35 AM 36.0 °F 28.5 °F 20.7 °F 54% 29.89 in 10.0 mi NNW 10.4 mph - N/A   Clear
10:55 AM 36.7 °F 30.5 °F 20.7 °F 52% 29.88 in 10.0 mi NW 8.1 mph - N/A   Clear
11:15 AM 37.4 °F 30.8 °F 21.0 °F 52% 29.88 in 10.0 mi NW 9.2 mph - N/A   Clear
11:35 AM 38.3 °F 31.4 °F 21.6 °F 51% 29.88 in 10.0 mi NW 10.4 mph - N/A   Clear
11:55 AM 38.7 °F 31.4 °F 21.0 °F 49% 29.88 in 10.0 mi WNW 11.5 mph - N/A   Clear
12:15 PM 39.2 °F 31.2 °F 21.4 °F 49% 29.88 in 10.0 mi WNW 13.8 mph - N/A   Clear
12:35 PM 39.2 °F 31.6 °F 21.4 °F 49% 29.88 in 10.0 mi WNW 12.7 mph - N/A   Clear
12:55 PM 39.7 °F 32.7 °F 21.9 °F 49% 29.88 in 10.0 mi WNW 11.5 mph - N/A   Clear
1:15 PM 40.1 °F 34.1 °F 22.1 °F 49% 29.88 in 10.0 mi NW 9.2 mph - N/A   Clear
1:35 PM 39.9 °F 32.9 °F 21.7 °F 48% 29.88 in 10.0 mi NNW 11.5 mph - N/A   Clear
1:55 PM 39.6 °F 34.7 °F 21.0 °F 48% 29.88 in 10.0 mi NW 6.9 mph - N/A   Clear
2:15 PM 39.6 °F 33.0 °F 21.2 °F 48% 29.89 in 10.0 mi West 10.4 mph - N/A   Clear
2:35 PM 38.7 °F 32.9 °F 20.5 °F 48% 29.89 in 10.0 mi NW 8.1 mph - N/A   Clear
2:55 PM 39.2 °F 34.2 °F 21.2 °F 49% 29.89 in 10.0 mi WNW 6.9 mph - N/A   Clear
3:15 PM 38.3 °F 31.9 °F 20.8 °F 50% 29.91 in 10.0 mi WNW 9.2 mph - N/A   Clear
3:35 PM 37.4 °F 31.4 °F 20.3 °F 50% 29.92 in 10.0 mi WNW 8.1 mph - N/A   Clear
3:55 PM 35.8 °F 30.1 °F 20.3 °F 53% 29.92 in 10.0 mi WNW 6.9 mph - N/A   Clear
4:15 PM 34.0 °F 28.8 °F 20.3 °F 57% 29.93 in 10.0 mi West 5.8 mph - N/A   Clear
4:35 PM 32.5 °F 26.2 °F 20.5 °F 61% 29.93 in 10.0 mi West 6.9 mph - N/A   Clear
4:55 PM 31.8 °F 26.2 °F 21.2 °F 65% 29.93 in 10.0 mi West 5.8 mph - N/A   Clear
5:15 PM 29.7 °F 26.1 °F 20.3 °F 68% 29.94 in 10.0 mi NW 3.5 mph - N/A   Clear
5:35 PM 28.9 °F 25.2 °F 20.8 °F 72% 29.95 in 10.0 mi West 3.5 mph - N/A   Clear
5:55 PM 28.9 °F - 21.2 °F 73% 29.96 in 10.0 mi Calm Calm - N/A   Clear
6:15 PM 27.1 °F - 21.7 °F 80% 29.97 in 10.0 mi Calm Calm - N/A   Clear
6:35 PM 26.2 °F - 20.3 °F 78% 29.98 in 10.0 mi Calm Calm - N/A   Clear
6:55 PM 26.2 °F - 21.7 °F 83% 29.98 in 10.0 mi Calm Calm - N/A   Clear
7:15 PM 27.5 °F - 20.8 °F 76% 29.99 in 10.0 mi Calm Calm - N/A   Clear
7:35 PM 27.3 °F - 21.6 °F 79% 30.00 in 10.0 mi Calm Calm - N/A   Clear
7:55 PM 28.9 °F - 22.1 °F 76% 30.00 in 10.0 mi Calm Calm - N/A   Clear
8:15 PM 29.8 °F - 23.9 °F 79% 30.00 in 10.0 mi Calm Calm - N/A   Clear
8:35 PM 30.2 °F 26.7 °F 23.4 °F 76% 30.01 in 10.0 mi WNW 3.5 mph - N/A   Clear
8:55 PM 31.8 °F 26.2 °F 22.6 °F 69% 30.02 in 10.0 mi WNW 5.8 mph - N/A   Clear
9:15 PM 31.1 °F 23.7 °F 22.5 °F 70% 30.03 in 10.0 mi NW 8.1 mph - N/A   Clear
9:35 PM 31.3 °F 25.6 °F 22.5 °F 70% 30.04 in 10.0 mi NW 5.8 mph - N/A   Clear
9:55 PM 30.4 °F 24.5 °F 22.1 °F 71% 30.05 in 10.0 mi NNW 5.8 mph - N/A   Clear
10:15 PM 30.7 °F 20.9 °F 19.4 °F 63% 30.07 in 10.0 mi NNW 12.7 mph - N/A   Clear
10:35 PM 29.1 °F 21.3 °F 18.3 °F 64% 30.08 in 10.0 mi NNW 8.1 mph - N/A   Clear
10:55 PM 28.2 °F 21.0 °F 18.0 °F 65% 30.09 in 10.0 mi NNW 6.9 mph - N/A   Clear
11:15 PM 27.7 °F 21.3 °F 16.9 °F 64% 30.09 in 10.0 mi NNW 5.8 mph - N/A   Clear
11:35 PM 26.6 °F 20.0 °F 16.5 °F 66% 30.10 in 10.0 mi NNW 5.8 mph - N/A   Clear
11:55 PM 25.9 °F 20.3 °F 17.1 °F 69% 30.11 in 10.0 mi NW 4.6 mph - N/A   Clear